エドモントン の空港の天気 - METARとTAF

エドモントン国際空港 ( CYEG / YEG ) - カナダ アルバータ州Edmonton Capital Region
飛行場実況気象(Metar)
観測時間08/22 10:00 MDT (08/22 16:00 UTC)
風向・風速静穏 0m/s
視程10km以上
天気現象
全天の4割程度の雲 雲底高度 2680m
全天の8割程度の雲 雲底高度 7320m
気温15℃
湿度82%
気圧1011.1hPa
METARCYEG 221600Z 00000KT 20SM SCT088 BKN240 15/12 A2985 RMK AC4CI3 ACC EMBD SLP111 DENSITY ALT 3100FT
過去の天気等 Google飛行場航空写真 Wunderground天気予報

過去48時間のMETAR

飛行場予報(TAF)
発表時間: 8/22 08:38 MDT (8/22 14:38 UTC)
予報対象時間: 22日9時 MDT ~ 23日6時 MDT
風向・風速不定 2m/s
視程10km以上
全天の4割程度の雲 雲底高度 2740m
全天の8割程度の雲 雲底高度 4270m
22日9時 MDT ~ 22日11時 MDT に徐々に
風向・風速西北西 4m/s
22日12時 MDT から
風向・風速北北西 6m/s
視程10km以上
少しの雲 雲底高度 2440m
22日19時 MDT から
風向・風速北 3m/s
視程10km以上
なし
23日0時 MDT から
風向・風速南南東 3m/s
視程10km以上
全天の4割程度の雲 雲底高度 7620m
TAF CYEG 221438Z 2215/2312 VRB03KT P6SM SCT090 BKN140
BECMG 2215/2217 30008KT
FM221800 33012KT P6SM FEW080
FM230100 36005KT P6SM SKC
FM230600 16006KT P6SM SCT250 RMK NXT FCST BY 221800Z